Time;durP1;ratioP1;P1;durP2;ratioP2;P2;SDS_P1;SDS_P2;PMS_P1;PMS_P2;Temp;Humidity;BMP_temperature;BMP_pressure;BME280_temperature;BME280_humidity;BME280_pressure;Samples;Min_cycle;Max_cycle;Signal;HPM_P1;HPM_P2
2022/02/09 00:06:44;;;;;;;46.75;6.65;;;;;;;;;;5021953;28;20109;-64
2022/02/09 00:09:11;;;;;;;45.30;5.18;;;;;;;;;;5024529;28;20132;-63
2022/02/09 00:11:48;;;;;;;49.65;5.80;;;;;;;;;;5026024;28;20073;-64
2022/02/09 00:14:29;;;;;;;47.03;5.40;;;;;;;;;;5024920;28;20140;-64
2022/02/09 01:02:47;;;;;;;52.60;7.70;;;;;;;;;;5025914;28;20073;-63
2022/02/09 01:57:08;;;;;;;57.70;6.07;;;;;;;;;;5023326;28;20077;-64
2022/02/09 01:59:36;;;;;;;51.58;6.57;;;;;;;;;;5024993;28;20081;-64
2022/02/09 02:02:02;;;;;;;42.20;5.13;;;;;;;;;;5021377;28;20069;-64
2022/02/09 02:04:31;;;;;;;57.67;6.18;;;;;;;;;;5021220;28;20061;-64
2022/02/09 02:06:59;;;;;;;39.00;5.60;;;;;;;;;;5027863;28;20160;-64
2022/02/09 02:09:26;;;;;;;48.58;6.57;;;;;;;;;;5018361;28;20337;-64
2022/02/09 02:11:58;;;;;;;45.83;8.20;;;;;;;;;;5021490;28;20132;-64
2022/02/09 02:14:32;;;;;;;53.92;6.20;;;;;;;;;;5015295;28;20497;-64
2022/02/09 02:20:12;;;;;;;57.78;6.63;;;;;;;;;;4937934;28;20064;-64
2022/02/09 02:23:05;;;;;;;50.75;5.78;;;;;;;;;;5007386;28;20069;-64
2022/02/09 02:28:30;;;;;;;43.28;6.50;;;;;;;;;;5015026;28;20157;-64
2022/02/09 02:34:23;;;;;;;46.63;6.60;;;;;;;;;;5018018;28;20596;-64
2022/02/09 02:37:06;;;;;;;46.60;6.05;;;;;;;;;;5015563;28;20402;-64
2022/02/09 02:59:18;;;;;;;48.55;6.32;;;;;;;;;;5016428;28;20096;-64
2022/02/09 03:15:23;;;;;;;49.42;5.25;;;;;;;;;;5019254;28;20056;-64
2022/02/09 03:18:08;;;;;;;48.30;6.47;;;;;;;;;;5019009;28;20128;-64
2022/02/09 03:20:45;;;;;;;54.33;7.35;;;;;;;;;;5019913;28;20114;-64
2022/02/09 03:25:53;;;;;;;53.22;6.72;;;;;;;;;;5018148;28;22026;-64
2022/02/09 03:47:50;;;;;;;54.60;6.25;;;;;;;;;;5025317;28;20092;-64
2022/02/09 03:50:49;;;;;;;40.58;5.95;;;;;;;;;;5023866;28;20143;-64
2022/02/09 03:53:25;;;;;;;46.78;6.18;;;;;;;;;;5026305;28;20124;-64
2022/02/09 03:56:25;;;;;;;52.90;6.47;;;;;;;;;;5029309;28;20053;-64
2022/02/09 03:58:52;;;;;;;62.03;6.90;;;;;;;;;;5022633;28;21935;-64
2022/02/09 04:01:22;;;;;;;41.85;5.45;;;;;;;;;;5022645;28;20079;-64
2022/02/09 04:03:48;;;;;;;43.15;5.80;;;;;;;;;;5028430;28;20173;-64
2022/02/09 04:06:15;;;;;;;48.53;6.40;;;;;;;;;;5043558;28;20080;-64
2022/02/09 04:09:06;;;;;;;38.47;6.55;;;;;;;;;;5032886;28;20327;-64
2022/02/09 04:14:08;;;;;;;44.22;6.60;;;;;;;;;;5046580;28;20053;-64
2022/02/09 04:49:08;;;;;;;47.47;5.80;;;;;;;;;;4986041;28;20104;-64
2022/02/09 04:54:32;;;;;;;41.10;5.93;;;;;;;;;;5047306;28;19956;-64
2022/02/09 05:24:44;;;;;;;44.85;6.10;;;;;;;;;;5043900;28;20088;-64
2022/02/09 05:27:18;;;;;;;39.80;5.07;;;;;;;;;;5041731;28;20133;-63
2022/02/09 05:29:45;;;;;;;46.00;5.65;;;;;;;;;;5039684;28;20460;-64
2022/02/09 05:32:11;;;;;;;56.15;6.53;;;;;;;;;;5040753;28;20098;-64
2022/02/09 05:34:38;;;;;;;50.95;6.53;;;;;;;;;;5047232;28;20087;-64
2022/02/09 05:37:05;;;;;;;40.70;5.32;;;;;;;;;;5042723;28;20124;-63
2022/02/09 05:39:31;;;;;;;47.57;5.23;;;;;;;;;;5045537;28;20497;-64
2022/02/09 05:41:59;;;;;;;38.00;4.65;;;;;;;;;;5042004;28;20131;-64
2022/02/09 05:44:26;;;;;;;45.80;5.43;;;;;;;;;;5045632;28;20076;-64
2022/02/09 05:52:26;;;;;;;41.63;6.55;;;;;;;;;;5033738;28;20495;-64
2022/02/09 05:55:25;;;;;;;31.20;4.97;;;;;;;;;;5040606;28;20463;-65
2022/02/09 05:57:55;;;;;;;33.20;4.72;;;;;;;;;;5037996;28;20089;-65
2022/02/09 06:00:28;;;;;;;26.73;4.53;;;;;;;;;;5043553;28;20048;-66
2022/02/09 06:03:00;;;;;;;27.27;3.70;;;;;;;;;;5043298;28;20045;-65
2022/02/09 06:05:27;;;;;;;29.42;4.47;;;;;;;;;;5044489;28;20077;-66
2022/02/09 06:07:54;;;;;;;39.05;4.00;;;;;;;;;;5040467;28;20160;-66
2022/02/09 06:10:26;;;;;;;37.85;4.70;;;;;;;;;;5041459;28;20131;-66
2022/02/09 06:13:19;;;;;;;30.35;4.38;;;;;;;;;;5042898;28;20807;-67
2022/02/09 06:21:02;;;;;;;27.90;4.47;;;;;;;;;;5039217;28;20172;-67
2022/02/09 06:23:29;;;;;;;38.13;4.88;;;;;;;;;;5046055;28;20092;-67
2022/02/09 06:25:56;;;;;;;39.90;4.55;;;;;;;;;;5041241;28;20529;-67
2022/02/09 06:28:23;;;;;;;24.63;3.45;;;;;;;;;;5043115;28;20520;-67
2022/02/09 06:30:51;;;;;;;28.95;4.72;;;;;;;;;;5044370;28;20056;-66
2022/02/09 06:33:18;;;;;;;23.30;3.28;;;;;;;;;;5042424;28;20077;-67
2022/02/09 06:35:48;;;;;;;25.85;3.75;;;;;;;;;;5044513;28;20084;-66
2022/02/09 06:38:16;;;;;;;30.60;4.07;;;;;;;;;;5043022;28;20123;-67
2022/02/09 06:40:44;;;;;;;39.08;5.20;;;;;;;;;;5043030;28;20049;-67
2022/02/09 06:43:17;;;;;;;40.58;4.82;;;;;;;;;;5045336;28;20095;-66
2022/02/09 06:45:44;;;;;;;21.42;4.60;;;;;;;;;;5044671;28;20088;-66
2022/02/09 06:48:14;;;;;;;36.50;4.22;;;;;;;;;;5041893;28;20148;-66
2022/02/09 06:50:48;;;;;;;32.85;4.85;;;;;;;;;;5042931;28;20076;-66
2022/02/09 06:55:58;;;;;;;30.25;4.40;;;;;;;;;;5046378;28;20102;-66
2022/02/09 06:58:42;;;;;;;36.13;4.00;;;;;;;;;;5044152;28;20128;-66
2022/02/09 07:01:10;;;;;;;31.67;3.50;;;;;;;;;;5039453;28;20141;-66
2022/02/09 07:03:37;;;;;;;34.28;4.35;;;;;;;;;;5042727;28;20088;-66
2022/02/09 07:06:03;;;;;;;44.43;4.50;;;;;;;;;;5024258;28;20077;-66
2022/02/09 07:08:30;;;;;;;36.65;4.68;;;;;;;;;;5029022;28;20080;-66
2022/02/09 07:10:56;;;;;;;43.22;3.97;;;;;;;;;;5025654;28;20164;-66
2022/02/09 07:13:23;;;;;;;32.00;5.03;;;;;;;;;;5028659;28;20077;-66
2022/02/09 07:16:03;;;;;;;32.83;4.07;;;;;;;;;;5027002;28;20053;-67
2022/02/09 07:18:29;;;;;;;37.60;4.80;;;;;;;;;;5028603;28;20481;-66
2022/02/09 07:21:03;;;;;;;36.58;4.70;;;;;;;;;;5028332;28;20605;-66
2022/02/09 07:23:51;;;;;;;35.53;5.18;;;;;;;;;;5027904;28;20842;-66
2022/02/09 07:26:28;;;;;;;37.60;4.80;;;;;;;;;;5024860;28;20164;-66
2022/02/09 07:28:57;;;;;;;47.45;4.55;;;;;;;;;;5027370;28;20045;-66
2022/02/09 07:31:24;;;;;;;34.92;4.40;;;;;;;;;;5025763;28;20655;-66
2022/02/09 07:33:50;;;;;;;29.98;4.28;;;;;;;;;;5028246;28;20479;-66
2022/02/09 07:36:24;;;;;;;31.17;3.78;;;;;;;;;;5028491;28;20091;-66
2022/02/09 07:38:50;;;;;;;42.63;6.30;;;;;;;;;;5028470;28;20057;-66
2022/02/09 07:41:18;;;;;;;34.45;5.03;;;;;;;;;;5028868;28;20984;-66
2022/02/09 07:44:06;;;;;;;30.67;4.65;;;;;;;;;;5027941;28;20053;-66
2022/02/09 07:46:55;;;;;;;32.78;5.05;;;;;;;;;;5027041;28;20088;-66
2022/02/09 07:49:51;;;;;;;25.90;3.95;;;;;;;;;;5028482;28;20084;-66
2022/02/09 07:52:25;;;;;;;42.72;5.97;;;;;;;;;;5028210;28;20140;-66
2022/02/09 07:54:54;;;;;;;38.42;5.28;;;;;;;;;;5027632;28;20168;-66
2022/02/09 07:57:21;;;;;;;29.00;4.45;;;;;;;;;;5029672;28;20524;-66
2022/02/09 07:59:48;;;;;;;;;;;;;;;;;;5026656;28;20085;-66
2022/02/09 08:02:18;;;;;;;34.33;4.88;;;;;;;;;;5027043;28;19968;-66
2022/02/09 08:04:45;;;;;;;41.03;5.10;;;;;;;;;;5035054;28;20057;-66
2022/02/09 08:07:11;;;;;;;30.43;4.43;;;;;;;;;;5038620;28;20053;-66
2022/02/09 08:09:41;;;;;;;35.03;4.15;;;;;;;;;;5044226;28;20076;-66
2022/02/09 08:29:03;;;;;;;33.83;3.70;;;;;;;;;;5042923;28;20128;-66
2022/02/09 08:34:09;;;;;;;31.75;4.13;;;;;;;;;;5044739;28;20052;-66
2022/02/09 08:36:35;;;;;;;30.38;5.15;;;;;;;;;;5044662;28;20481;-66
2022/02/09 08:39:02;;;;;;;34.08;4.43;;;;;;;;;;5044120;28;20569;-66
2022/02/09 08:41:28;;;;;;;27.63;4.07;;;;;;;;;;5043866;28;20092;-66
2022/02/09 08:44:02;;;;;;;28.73;4.60;;;;;;;;;;5043606;28;20081;-66
2022/02/09 08:46:28;;;;;;;37.97;4.68;;;;;;;;;;5040493;28;20053;-66
2022/02/09 08:48:55;;;;;;;33.60;5.93;;;;;;;;;;5041751;28;20136;-66
2022/02/09 08:51:24;;;;;;;37.97;4.50;;;;;;;;;;5039137;28;20061;-66
2022/02/09 08:53:50;;;;;;;37.80;5.00;;;;;;;;;;5039316;28;20135;-66
2022/02/09 08:56:17;;;;;;;38.70;5.40;;;;;;;;;;5039611;28;20048;-66
2022/02/09 08:58:44;;;;;;;47.00;4.72;;;;;;;;;;5039761;28;21610;-66
2022/02/09 09:01:23;;;;;;;39.42;5.55;;;;;;;;;;5039400;28;20066;-66
2022/02/09 09:04:16;;;;;;;34.28;4.38;;;;;;;;;;5039763;28;20102;-66
2022/02/09 09:06:45;;;;;;;25.50;3.92;;;;;;;;;;5024767;28;20471;-66
2022/02/09 09:09:26;;;;;;;31.42;3.90;;;;;;;;;;5024630;28;20081;-66
2022/02/09 09:14:51;;;;;;;27.70;4.60;;;;;;;;;;5020383;28;20144;-66
2022/02/09 10:02:08;;;;;;;30.80;4.63;;;;;;;;;;5019246;28;20057;-66
2022/02/09 10:35:11;;;;;;;30.80;3.80;;;;;;;;;;5025284;28;20050;-65
2022/02/09 10:37:43;;;;;;;36.00;5.60;;;;;;;;;;5019939;28;20049;-65
2022/02/09 10:40:29;;;;;;;26.17;4.18;;;;;;;;;;5020418;28;20579;-65
2022/02/09 10:43:00;;;;;;;29.73;5.32;;;;;;;;;;5017826;28;20065;-65
2022/02/09 10:45:47;;;;;;;29.90;3.75;;;;;;;;;;5018584;28;20428;-65
2022/02/09 10:48:33;;;;;;;21.48;2.95;;;;;;;;;;5017836;28;20527;-65
2022/02/09 10:51:15;;;;;;;22.65;3.78;;;;;;;;;;5024190;28;20140;-65
2022/02/09 10:54:02;;;;;;;17.83;3.45;;;;;;;;;;5023149;28;20077;-65
2022/02/09 10:56:33;;;;;;;34.40;4.72;;;;;;;;;;5020090;28;20173;-65
2022/02/09 10:59:04;;;;;;;30.15;5.07;;;;;;;;;;5019033;28;20145;-65
2022/02/09 11:01:31;;;;;;;28.58;4.15;;;;;;;;;;5017311;28;20136;-65
2022/02/09 11:03:58;;;;;;;32.03;4.35;;;;;;;;;;5019141;28;21425;-66
2022/02/09 11:06:30;;;;;;;34.47;4.72;;;;;;;;;;5039366;28;20159;-65
2022/02/09 11:08:56;;;;;;;26.40;3.70;;;;;;;;;;5038899;28;20044;-65
2022/02/09 11:11:23;;;;;;;22.45;4.22;;;;;;;;;;5039997;28;20139;-65
2022/02/09 11:13:50;;;;;;;28.83;4.30;;;;;;;;;;5037821;28;20145;-65
2022/02/09 11:16:21;;;;;;;19.35;4.05;;;;;;;;;;5048925;28;20080;-65
2022/02/09 11:18:49;;;;;;;31.88;4.40;;;;;;;;;;5036645;28;20075;-65
2022/02/09 11:21:25;;;;;;;29.85;4.10;;;;;;;;;;5038389;28;20049;-65
2022/02/09 11:24:06;;;;;;;33.38;6.20;;;;;;;;;;5038732;28;20098;-65
2022/02/09 11:26:43;;;;;;;31.05;5.20;;;;;;;;;;5039311;28;20063;-65
2022/02/09 11:30:01;;;;;;;32.70;5.75;;;;;;;;;;5040522;28;21341;-65
2022/02/09 11:32:29;;;;;;;34.78;5.05;;;;;;;;;;5039802;28;20135;-65
2022/02/09 11:37:56;;;;;;;27.38;4.00;;;;;;;;;;5038087;28;20519;-65
2022/02/09 11:40:42;;;;;;;35.10;5.57;;;;;;;;;;5039055;28;20072;-65
2022/02/09 11:43:20;;;;;;;35.40;5.47;;;;;;;;;;5036948;28;20049;-65
2022/02/09 11:52:19;;;;;;;40.42;5.75;;;;;;;;;;5039766;28;20042;-65
2022/02/09 12:09:24;;;;;;;40.10;5.30;;;;;;;;;;5015135;28;20136;-65
2022/02/09 12:11:52;;;;;;;28.13;3.45;;;;;;;;;;5022586;28;20085;-65
2022/02/09 12:14:47;;;;;;;21.70;4.18;;;;;;;;;;5023518;28;20518;-65
2022/02/09 12:20:35;;;;;;;15.98;1.83;;;;;;;;;;5016903;28;20140;-64
2022/02/09 12:23:07;;;;;;;10.95;2.30;;;;;;;;;;5014914;28;20647;-64
2022/02/09 12:25:42;;;;;;;16.08;2.20;;;;;;;;;;5022694;28;20134;-65
2022/02/09 12:28:15;;;;;;;10.32;2.40;;;;;;;;;;5024975;28;20136;-65
2022/02/09 12:30:48;;;;;;;11.90;2.03;;;;;;;;;;5022693;28;20651;-64
2022/02/09 12:33:24;;;;;;;8.73;2.10;;;;;;;;;;5027906;28;20594;-65
2022/02/09 12:35:51;;;;;;;11.45;2.00;;;;;;;;;;5024815;28;20089;-64
2022/02/09 12:38:30;;;;;;;12.02;1.85;;;;;;;;;;5019904;28;20049;-64
2022/02/09 12:41:20;;;;;;;3.60;1.17;;;;;;;;;;5014709;28;20073;-64
2022/02/09 12:43:56;;;;;;;6.63;2.00;;;;;;;;;;5014185;28;20166;-64
2022/02/09 12:46:29;;;;;;;5.88;1.55;;;;;;;;;;5014810;28;20045;-64
2022/02/09 12:49:03;;;;;;;10.38;1.95;;;;;;;;;;5014986;28;20170;-64
2022/02/09 12:51:29;;;;;;;7.53;1.20;;;;;;;;;;5014602;28;20172;-64
2022/02/09 12:54:04;;;;;;;6.20;1.13;;;;;;;;;;5014471;28;20052;-64
2022/02/09 12:56:32;;;;;;;10.67;1.40;;;;;;;;;;4999656;28;20164;-64
2022/02/09 12:59:08;;;;;;;6.15;1.30;;;;;;;;;;5013872;28;20304;-64
2022/02/09 13:01:42;;;;;;;7.55;1.30;;;;;;;;;;5014204;28;20144;-64
2022/02/09 13:04:32;;;;;;;8.98;1.90;;;;;;;;;;5023994;28;20203;-64
2022/02/09 13:06:59;;;;;;;11.80;2.05;;;;;;;;;;5041143;28;20107;-64
2022/02/09 13:09:25;;;;;;;;;;;;;;;;;;5038086;28;20041;-64
2022/02/09 13:11:52;;;;;;;6.82;1.15;;;;;;;;;;5038846;28;20023;-64
2022/02/09 13:14:42;;;;;;;7.67;1.70;;;;;;;;;;5045553;28;20072;-64
2022/02/09 13:23:00;;;;;;;13.68;1.70;;;;;;;;;;5038530;28;20041;-64
2022/02/09 14:02:59;;;;;;;15.30;2.90;;;;;;;;;;5038467;28;20710;-63
2022/02/09 14:16:11;;;;;;;12.60;2.40;;;;;;;;;;5041893;28;20164;-63
2022/02/09 14:31:58;;;;;;;25.50;2.95;;;;;;;;;;5037834;28;20232;-63
2022/02/09 14:51:55;;;;;;;28.02;3.92;;;;;;;;;;5044703;28;20127;-63
2022/02/09 14:54:37;;;;;;;23.40;3.53;;;;;;;;;;5035960;28;20084;-63
2022/02/09 14:57:16;;;;;;;21.17;3.67;;;;;;;;;;5035440;28;20076;-63
2022/02/09 15:02:15;;;;;;;27.15;3.60;;;;;;;;;;5040533;28;20080;-63
2022/02/09 15:07:36;;;;;;;35.17;5.80;;;;;;;;;;5042316;28;20118;-63
2022/02/09 15:10:14;;;;;;;35.63;5.47;;;;;;;;;;5043254;28;20080;-63
2022/02/09 15:13:01;;;;;;;32.23;4.83;;;;;;;;;;5044008;28;20135;-63
2022/02/09 15:15:50;;;;;;;29.77;4.70;;;;;;;;;;5044145;28;20091;-63
2022/02/09 15:23:47;;;;;;;22.02;3.53;;;;;;;;;;5037711;28;20130;-64
2022/02/09 15:26:18;;;;;;;38.15;5.13;;;;;;;;;;5043333;28;20128;-63
2022/02/09 15:28:44;;;;;;;24.38;3.78;;;;;;;;;;5039084;28;20132;-63
2022/02/09 15:34:13;;;;;;;;;;;;;;;;;;5043235;28;20157;-63
2022/02/09 15:39:23;;;;;;;36.08;4.45;;;;;;;;;;5043933;28;20128;-63
2022/02/09 16:09:25;;;;;;;33.17;4.15;;;;;;;;;;5047231;28;20124;-62
2022/02/09 16:46:58;;;;;;;27.08;3.80;;;;;;;;;;5042605;28;20582;-63
2022/02/09 16:49:31;;;;;;;29.17;4.95;;;;;;;;;;5040217;28;20305;-63
2022/02/09 16:52:15;;;;;;;38.03;4.30;;;;;;;;;;5043779;28;20488;-63
2022/02/09 17:19:36;;;;;;;24.10;3.75;;;;;;;;;;5023317;28;20057;-63
2022/02/09 17:22:04;;;;;;;20.50;3.85;;;;;;;;;;5022770;28;20497;-63
2022/02/09 17:24:30;;;;;;;23.13;3.33;;;;;;;;;;5024985;28;20089;-63
2022/02/09 17:26:58;;;;;;;21.27;4.55;;;;;;;;;;5021071;28;20060;-62
2022/02/09 17:29:43;;;;;;;35.67;3.88;;;;;;;;;;5022015;28;20461;-63
2022/02/09 17:37:45;;;;;;;19.48;3.05;;;;;;;;;;5021597;28;20147;-62
2022/02/09 17:56:58;;;;;;;28.80;4.05;;;;;;;;;;5018062;28;20073;-63
2022/02/09 17:59:25;;;;;;;26.17;4.60;;;;;;;;;;5021442;28;20132;-63
2022/02/09 18:01:57;;;;;;;28.63;3.80;;;;;;;;;;5017176;28;20068;-63
2022/02/09 18:04:24;;;;;;;29.73;5.32;;;;;;;;;;5020717;28;20058;-63
2022/02/09 18:06:57;;;;;;;30.73;3.75;;;;;;;;;;5019598;28;20107;-63
2022/02/09 18:09:37;;;;;;;32.13;5.90;;;;;;;;;;5023236;28;20049;-63
2022/02/09 18:12:37;;;;;;;33.50;5.50;;;;;;;;;;5018824;28;20082;-63
2022/02/09 18:15:25;;;;;;;18.77;3.83;;;;;;;;;;5021709;28;20132;-63
2022/02/09 19:04:08;;;;;;;29.20;3.83;;;;;;;;;;5021758;28;20474;-63
2022/02/09 19:17:32;;;;;;;32.22;4.65;;;;;;;;;;5020065;28;20524;-63
2022/02/09 19:31:10;;;;;;;22.83;4.40;;;;;;;;;;5020101;28;20132;-63
2022/02/09 19:42:59;;;;;;;29.13;4.43;;;;;;;;;;5020651;28;20787;-63
2022/02/09 19:47:44;;;;;;;40.67;5.70;;;;;;;;;;5017646;28;20395;-62
2022/02/09 19:50:30;;;;;;;29.17;4.75;;;;;;;;;;5018289;28;20081;-62
2022/02/09 19:53:23;;;;;;;36.35;5.07;;;;;;;;;;5019720;28;20510;-62
2022/02/09 19:55:59;;;;;;;25.40;3.67;;;;;;;;;;5019952;28;20137;-62
2022/02/09 19:58:42;;;;;;;36.65;5.13;;;;;;;;;;5020096;28;20157;-62
2022/02/09 20:01:13;;;;;;;23.90;3.90;;;;;;;;;;5021261;28;20092;-62
2022/02/09 20:03:39;;;;;;;29.98;4.60;;;;;;;;;;5019685;28;20373;-63
2022/02/09 20:06:07;;;;;;;25.23;3.65;;;;;;;;;;5025005;28;20596;-63
2022/02/09 20:08:35;;;;;;;;;;;;;;;;;;5020344;28;20085;-62
2022/02/09 20:11:07;;;;;;;30.60;3.65;;;;;;;;;;5021206;28;20004;-63
2022/02/09 20:13:34;;;;;;;26.48;3.88;;;;;;;;;;5017771;28;20156;-62
2022/02/09 20:16:01;;;;;;;29.53;4.13;;;;;;;;;;5023478;28;20094;-62
2022/02/09 20:18:28;;;;;;;24.85;4.05;;;;;;;;;;5021448;28;20089;-62
2022/02/09 20:20:56;;;;;;;20.95;2.90;;;;;;;;;;5020861;28;20053;-63
2022/02/09 20:23:22;;;;;;;24.88;5.25;;;;;;;;;;5001890;28;20173;-63
2022/02/09 20:25:50;;;;;;;29.92;4.82;;;;;;;;;;5022622;28;20992;-62
2022/02/09 20:28:17;;;;;;;32.27;5.47;;;;;;;;;;5022888;28;20085;-62
2022/02/09 20:30:53;;;;;;;26.27;4.35;;;;;;;;;;5025820;28;20392;-63
2022/02/09 20:33:39;;;;;;;28.60;3.75;;;;;;;;;;5024604;28;20568;-62
2022/02/09 20:36:08;;;;;;;;;;;;;;;;;;5024614;28;20548;-62
2022/02/09 20:38:36;;;;;;;32.45;4.55;;;;;;;;;;5022873;28;20005;-63
2022/02/09 20:41:09;;;;;;;41.20;4.82;;;;;;;;;;5023298;28;20053;-63
2022/02/09 20:43:43;;;;;;;27.77;4.18;;;;;;;;;;5018762;28;20104;-62
2022/02/09 20:46:10;;;;;;;26.65;5.00;;;;;;;;;;5021494;28;20053;-62
2022/02/09 20:48:37;;;;;;;37.67;4.65;;;;;;;;;;5020630;28;20124;-63
2022/02/09 20:51:03;;;;;;;35.95;5.85;;;;;;;;;;5020283;28;20054;-63
2022/02/09 20:53:35;;;;;;;33.65;4.50;;;;;;;;;;5022462;28;20135;-63
2022/02/09 20:56:03;;;;;;;31.70;5.15;;;;;;;;;;5023130;28;20114;-63
2022/02/09 20:58:34;;;;;;;39.58;5.70;;;;;;;;;;5024754;28;20092;-63
2022/02/09 21:01:06;;;;;;;31.02;4.07;;;;;;;;;;5029829;28;20136;-63
2022/02/09 21:03:48;;;;;;;40.83;4.57;;;;;;;;;;5019348;28;20049;-63
2022/02/09 21:06:59;;;;;;;33.08;4.50;;;;;;;;;;5022840;28;20096;-63
2022/02/09 21:09:34;;;;;;;52.75;6.20;;;;;;;;;;5018337;28;20468;-63
2022/02/09 21:33:15;;;;;;;41.67;5.35;;;;;;;;;;5025337;28;20557;-63
2022/02/09 21:46:56;;;;;;;44.65;5.45;;;;;;;;;;5019741;28;20054;-63
2022/02/09 21:54:55;;;;;;;34.13;5.28;;;;;;;;;;5024690;28;20722;-64
2022/02/09 21:57:40;;;;;;;36.17;5.97;;;;;;;;;;5021253;28;20116;-63
2022/02/09 22:00:26;;;;;;;36.67;4.82;;;;;;;;;;5020555;28;20132;-63
2022/02/09 22:56:51;;;;;;;37.70;5.20;;;;;;;;;;5022364;28;20136;-63
2022/02/09 22:59:29;;;;;;;33.38;5.30;;;;;;;;;;5022952;28;20132;-63
2022/02/09 23:02:02;;;;;;;29.10;5.25;;;;;;;;;;5018200;28;20058;-64
2022/02/09 23:04:46;;;;;;;33.17;4.72;;;;;;;;;;5016919;28;20685;-64
2022/02/09 23:07:28;;;;;;;34.45;4.03;;;;;;;;;;5019902;28;20164;-63
2022/02/09 23:10:08;;;;;;;35.72;4.90;;;;;;;;;;5017638;28;20053;-65
2022/02/09 23:12:55;;;;;;;;;;;;;;;;;;5022908;28;20593;-63
2022/02/09 23:15:58;;;;;;;33.80;5.25;;;;;;;;;;5020945;28;20028;-63
2022/02/09 23:18:39;;;;;;;32.50;5.43;;;;;;;;;;5020460;28;20045;-63
2022/02/09 23:21:30;;;;;;;40.10;6.20;;;;;;;;;;5021562;28;20120;-64
2022/02/09 23:27:02;;;;;;;30.55;4.45;;;;;;;;;;5019611;28;20051;-63
2022/02/09 23:57:38;;;;;;;21.85;3.30;;;;;;;;;;5022258;28;20103;-63
